Time;durP1;ratioP1;P1;durP2;ratioP2;P2;SDS_P1;SDS_P2;PMS_P1;PMS_P2;Temp;Humidity;BMP_temperature;BMP_pressure;BME280_temperature;BME280_humidity;BME280_pressure;Samples;Min_cycle;Max_cycle;Signal;HPM_P1;HPM_P2
2022/07/29 00:02:03;;;;;;;5.53;1.65;;;;;;;;;;5074096;28;20039;-63
2022/07/29 00:04:29;;;;;;;6.53;1.10;;;;;;;;;;5075694;28;20089;-63
2022/07/29 00:06:55;;;;;;;4.47;1.35;;;;;;;;;;5072175;28;20036;-63
2022/07/29 00:09:21;;;;;;;4.97;1.33;;;;;;;;;;5078944;28;20040;-63
2022/07/29 00:11:48;;;;;;;6.75;1.40;;;;;;;;;;5077302;28;20044;-63
2022/07/29 00:14:14;;;;;;;4.95;1.17;;;;;;;;;;5075740;28;20083;-63
2022/07/29 00:16:40;;;;;;;4.47;1.08;;;;;;;;;;5108499;27;20184;-63
2022/07/29 00:19:06;;;;;;;4.97;1.23;;;;;;;;;;5099245;27;20496;-63
2022/07/29 00:21:32;;;;;;;3.72;1.13;;;;;;;;;;5115755;27;20058;-63
2022/07/29 00:23:59;;;;;;;3.55;1.10;;;;;;;;;;5097519;27;20081;-64
2022/07/29 00:26:27;;;;;;;3.95;1.30;;;;;;;;;;5117469;27;20459;-63
2022/07/29 00:28:54;;;;;;;5.03;1.13;;;;;;;;;;5119657;27;20082;-63
2022/07/29 00:31:20;;;;;;;5.32;1.13;;;;;;;;;;5116205;27;20046;-63
2022/07/29 00:33:46;;;;;;;4.05;1.00;;;;;;;;;;5119366;27;20047;-63
2022/07/29 00:36:12;;;;;;;2.78;1.25;;;;;;;;;;5119165;27;20139;-64
2022/07/29 00:38:38;;;;;;;2.45;1.00;;;;;;;;;;5117943;27;20059;-63
2022/07/29 00:41:04;;;;;;;3.83;1.00;;;;;;;;;;5117711;27;20054;-63
2022/07/29 00:43:31;;;;;;;4.95;1.25;;;;;;;;;;5098447;27;20050;-63
2022/07/29 00:45:57;;;;;;;4.05;1.38;;;;;;;;;;5107338;27;20458;-63
2022/07/29 00:48:23;;;;;;;4.72;1.23;;;;;;;;;;5116922;27;20048;-64
2022/07/29 00:50:50;;;;;;;5.07;1.15;;;;;;;;;;5115973;27;20575;-63
2022/07/29 00:53:16;;;;;;;6.38;1.13;;;;;;;;;;5115545;27;20372;-63
2022/07/29 00:55:42;;;;;;;4.55;1.70;;;;;;;;;;5120227;27;20046;-63
2022/07/29 00:58:09;;;;;;;4.03;1.08;;;;;;;;;;5102298;27;20088;-62
2022/07/29 01:00:35;;;;;;;4.93;1.00;;;;;;;;;;5119989;27;20069;-63
2022/07/29 01:03:01;;;;;;;5.35;1.30;;;;;;;;;;5103989;27;20095;-63
2022/07/29 01:05:28;;;;;;;5.55;1.33;;;;;;;;;;5119520;27;20448;-64
2022/07/29 01:07:55;;;;;;;4.75;1.00;;;;;;;;;;5121375;27;20066;-63
2022/07/29 01:10:21;;;;;;;4.88;1.42;;;;;;;;;;5124661;27;20126;-63
2022/07/29 01:12:49;;;;;;;3.38;1.35;;;;;;;;;;5090433;27;20128;-62
2022/07/29 01:15:16;;;;;;;8.18;1.58;;;;;;;;;;5127214;27;20079;-62
2022/07/29 01:17:54;;;;;;;4.50;1.23;;;;;;;;;;5121801;27;20482;-62
2022/07/29 01:20:25;;;;;;;6.97;1.52;;;;;;;;;;5104906;27;20130;-62
2022/07/29 01:23:07;;;;;;;6.25;1.58;;;;;;;;;;5121694;27;20468;-63
2022/07/29 01:25:45;;;;;;;6.60;1.10;;;;;;;;;;5118790;27;20043;-62
2022/07/29 01:28:21;;;;;;;7.95;1.45;;;;;;;;;;5124446;27;20058;-61
2022/07/29 01:30:51;;;;;;;3.72;1.15;;;;;;;;;;5120143;27;20492;-62
2022/07/29 01:36:06;;;;;;;4.78;1.67;;;;;;;;;;5121819;27;20040;-62
2022/07/29 01:38:32;;;;;;;4.38;1.35;;;;;;;;;;5123996;27;20383;-62
2022/07/29 01:41:02;;;;;;;3.88;1.27;;;;;;;;;;5123127;27;20035;-62
2022/07/29 01:43:33;;;;;;;5.60;1.30;;;;;;;;;;5119881;27;20524;-62
2022/07/29 01:46:01;;;;;;;4.70;1.30;;;;;;;;;;5124342;27;20070;-62
2022/07/29 01:48:34;;;;;;;5.25;1.10;;;;;;;;;;5103397;27;20043;-62
2022/07/29 01:51:08;;;;;;;5.63;1.10;;;;;;;;;;5121458;27;20047;-61
2022/07/29 01:53:36;;;;;;;7.53;1.42;;;;;;;;;;5120838;27;20120;-61
2022/07/29 01:56:04;;;;;;;6.93;2.08;;;;;;;;;;5120661;27;20061;-61
2022/07/29 01:58:31;;;;;;;4.90;1.58;;;;;;;;;;5102938;27;20044;-62
2022/07/29 02:00:58;;;;;;;5.18;1.40;;;;;;;;;;5119334;27;20047;-62
2022/07/29 02:03:26;;;;;;;4.80;1.52;;;;;;;;;;5108417;27;20050;-62
2022/07/29 02:05:53;;;;;;;3.85;1.23;;;;;;;;;;5121684;27;20050;-62
2022/07/29 02:08:20;;;;;;;3.65;1.20;;;;;;;;;;5122492;27;20043;-62
2022/07/29 02:10:47;;;;;;;4.25;1.42;;;;;;;;;;5122240;27;21754;-62
2022/07/29 02:13:16;;;;;;;3.42;1.30;;;;;;;;;;5120218;27;20046;-62
2022/07/29 02:15:43;;;;;;;6.50;1.58;;;;;;;;;;5117558;27;20051;-62
2022/07/29 02:18:15;;;;;;;5.15;1.50;;;;;;;;;;5117522;27;20042;-62
2022/07/29 02:20:44;;;;;;;8.27;1.48;;;;;;;;;;5104890;27;20050;-62
2022/07/29 02:23:12;;;;;;;3.72;1.58;;;;;;;;;;5123203;27;20043;-61
2022/07/29 02:25:39;;;;;;;8.32;1.67;;;;;;;;;;5117947;27;20054;-61
2022/07/29 02:28:06;;;;;;;5.22;1.40;;;;;;;;;;5119824;27;20386;-62
2022/07/29 02:30:33;;;;;;;4.07;1.35;;;;;;;;;;5123079;27;20042;-61
2022/07/29 02:33:00;;;;;;;6.13;1.45;;;;;;;;;;5121264;27;20073;-62
2022/07/29 02:35:26;;;;;;;4.63;1.80;;;;;;;;;;5121366;27;20612;-62
2022/07/29 02:40:39;;;;;;;7.25;1.63;;;;;;;;;;5121717;27;20078;-62
2022/07/29 02:43:06;;;;;;;4.65;1.30;;;;;;;;;;5098691;27;20047;-62
2022/07/29 02:45:34;;;;;;;6.25;2.10;;;;;;;;;;5128739;27;20126;-62
2022/07/29 02:48:00;;;;;;;4.75;1.58;;;;;;;;;;5121769;27;20119;-62
2022/07/29 02:50:30;;;;;;;5.68;1.77;;;;;;;;;;5118978;27;20101;-62
2022/07/29 02:52:59;;;;;;;4.32;1.60;;;;;;;;;;5119499;27;20039;-62
2022/07/29 02:55:26;;;;;;;7.75;2.25;;;;;;;;;;5120151;27;20368;-62
2022/07/29 02:58:01;;;;;;;5.45;1.52;;;;;;;;;;5118453;27;20506;-62
2022/07/29 03:00:28;;;;;;;4.72;1.50;;;;;;;;;;5117136;27;20066;-62
2022/07/29 03:02:56;;;;;;;8.98;1.50;;;;;;;;;;5121055;27;20054;-62
2022/07/29 03:05:23;;;;;;;3.17;1.30;;;;;;;;;;5127268;27;20098;-62
2022/07/29 03:07:51;;;;;;;7.97;1.73;;;;;;;;;;5125679;27;20035;-62
2022/07/29 03:10:18;;;;;;;4.97;1.45;;;;;;;;;;5118366;27;20360;-62
2022/07/29 03:12:44;;;;;;;6.25;1.42;;;;;;;;;;5122318;27;20049;-62
2022/07/29 03:15:11;;;;;;;5.68;1.77;;;;;;;;;;5121534;27;20047;-62
2022/07/29 03:17:38;;;;;;;5.22;1.35;;;;;;;;;;5121162;27;20050;-62
2022/07/29 03:20:04;;;;;;;3.75;1.73;;;;;;;;;;5121330;27;20160;-62
2022/07/29 03:22:31;;;;;;;5.78;1.58;;;;;;;;;;5122312;27;20035;-62
2022/07/29 03:24:57;;;;;;;5.60;1.33;;;;;;;;;;5121218;27;20035;-61
2022/07/29 03:27:23;;;;;;;3.65;1.52;;;;;;;;;;5122497;27;20047;-62
2022/07/29 03:29:49;;;;;;;5.28;1.30;;;;;;;;;;5118598;27;20108;-61
2022/07/29 03:32:15;;;;;;;6.00;1.40;;;;;;;;;;5118061;27;20043;-62
2022/07/29 03:34:41;;;;;;;6.88;1.60;;;;;;;;;;5118286;27;20479;-62
2022/07/29 03:37:08;;;;;;;7.40;1.40;;;;;;;;;;5120188;27;20391;-62
2022/07/29 03:39:37;;;;;;;6.97;1.58;;;;;;;;;;5113943;27;20177;-61
2022/07/29 03:42:05;;;;;;;5.20;1.42;;;;;;;;;;5113422;27;20417;-62
2022/07/29 03:44:32;;;;;;;8.75;1.52;;;;;;;;;;5120451;27;20049;-62
2022/07/29 03:47:01;;;;;;;3.83;1.40;;;;;;;;;;5116236;27;20186;-62
2022/07/29 03:49:28;;;;;;;4.10;1.55;;;;;;;;;;5120812;27;20064;-62
2022/07/29 03:51:55;;;;;;;10.18;1.52;;;;;;;;;;5120210;27;20693;-62
2022/07/29 03:54:21;;;;;;;6.68;1.42;;;;;;;;;;5119661;27;20050;-62
2022/07/29 03:56:49;;;;;;;8.60;1.52;;;;;;;;;;5121276;27;20193;-61
2022/07/29 03:59:16;;;;;;;5.47;1.80;;;;;;;;;;5118436;27;20047;-62
2022/07/29 04:01:42;;;;;;;5.28;1.38;;;;;;;;;;5118914;27;20582;-62
2022/07/29 04:04:09;;;;;;;9.50;1.70;;;;;;;;;;5120748;27;20133;-62
2022/07/29 04:06:42;;;;;;;9.27;1.70;;;;;;;;;;5120043;27;20077;-62
2022/07/29 04:09:08;;;;;;;6.57;1.83;;;;;;;;;;5116988;27;20060;-62
2022/07/29 04:11:35;;;;;;;7.18;1.75;;;;;;;;;;5119697;27;20081;-62
2022/07/29 04:14:01;;;;;;;4.03;1.73;;;;;;;;;;5118801;27;20049;-61
2022/07/29 04:16:27;;;;;;;8.38;1.50;;;;;;;;;;5115583;27;20051;-62
2022/07/29 04:18:53;;;;;;;6.55;1.80;;;;;;;;;;5116990;27;20043;-62
2022/07/29 04:21:19;;;;;;;9.35;1.40;;;;;;;;;;5117204;27;20044;-62
2022/07/29 04:23:49;;;;;;;8.88;1.95;;;;;;;;;;5101465;27;20043;-62
2022/07/29 04:26:15;;;;;;;8.27;1.33;;;;;;;;;;5119401;27;20208;-62
2022/07/29 04:28:42;;;;;;;5.07;1.40;;;;;;;;;;5118890;27;20213;-61
2022/07/29 04:31:09;;;;;;;5.43;1.50;;;;;;;;;;5117152;27;20402;-62
2022/07/29 04:33:35;;;;;;;9.35;1.90;;;;;;;;;;5123904;27;21259;-62
2022/07/29 04:36:01;;;;;;;6.55;1.73;;;;;;;;;;5120036;27;20051;-62
2022/07/29 04:38:27;;;;;;;4.45;1.52;;;;;;;;;;5123169;27;20517;-62
2022/07/29 04:40:53;;;;;;;5.85;1.80;;;;;;;;;;5121239;27;20393;-62
2022/07/29 04:43:19;;;;;;;8.88;2.10;;;;;;;;;;5127272;27;20043;-62
2022/07/29 04:45:45;;;;;;;5.05;1.55;;;;;;;;;;5127444;27;20107;-62
2022/07/29 04:48:12;;;;;;;8.98;1.83;;;;;;;;;;5131042;27;20043;-62
2022/07/29 04:50:39;;;;;;;6.60;1.70;;;;;;;;;;5123487;27;20134;-62
2022/07/29 04:53:05;;;;;;;9.52;1.92;;;;;;;;;;5128990;27;20505;-62
2022/07/29 04:55:32;;;;;;;8.88;2.17;;;;;;;;;;5101119;27;20062;-62
2022/07/29 04:57:58;;;;;;;8.27;1.77;;;;;;;;;;5119865;27;20035;-62
2022/07/29 05:00:24;;;;;;;11.55;1.63;;;;;;;;;;5127926;27;20126;-62
2022/07/29 05:02:50;;;;;;;5.70;1.60;;;;;;;;;;5122482;27;20725;-61
2022/07/29 05:05:16;;;;;;;5.60;1.30;;;;;;;;;;5124313;27;20383;-61
2022/07/29 05:07:43;;;;;;;6.00;1.75;;;;;;;;;;5128761;27;20039;-61
2022/07/29 05:10:09;;;;;;;4.10;1.52;;;;;;;;;;5126978;27;20059;-61
2022/07/29 05:12:36;;;;;;;4.90;1.33;;;;;;;;;;5132183;27;20039;-61
2022/07/29 05:15:02;;;;;;;4.25;1.33;;;;;;;;;;5131112;27;20080;-62
2022/07/29 05:17:28;;;;;;;5.95;1.60;;;;;;;;;;5126923;27;20987;-62
2022/07/29 05:19:54;;;;;;;9.60;1.98;;;;;;;;;;5130529;27;20127;-63
2022/07/29 05:22:21;;;;;;;10.40;1.88;;;;;;;;;;5128982;27;20043;-63
2022/07/29 05:24:47;;;;;;;8.60;1.60;;;;;;;;;;5108976;27;20053;-63
2022/07/29 05:27:13;;;;;;;6.72;1.58;;;;;;;;;;5111186;27;20055;-62
2022/07/29 05:29:39;;;;;;;5.72;1.65;;;;;;;;;;5130893;27;20050;-64
2022/07/29 05:32:06;;;;;;;5.72;1.67;;;;;;;;;;5129638;27;20043;-63
2022/07/29 05:34:32;;;;;;;5.60;1.65;;;;;;;;;;5131746;27;20042;-63
2022/07/29 05:36:58;;;;;;;6.25;2.05;;;;;;;;;;5126662;27;20065;-63
2022/07/29 05:39:24;;;;;;;4.68;1.55;;;;;;;;;;5124428;27;20045;-63
2022/07/29 05:41:51;;;;;;;10.00;1.45;;;;;;;;;;5131811;27;20039;-64
2022/07/29 05:44:17;;;;;;;5.57;1.50;;;;;;;;;;5125397;27;20095;-63
2022/07/29 05:46:43;;;;;;;5.43;1.70;;;;;;;;;;5125458;27;20049;-63
2022/07/29 05:49:09;;;;;;;4.95;1.50;;;;;;;;;;5126338;27;20103;-63
2022/07/29 05:51:35;;;;;;;3.60;1.20;;;;;;;;;;5128403;27;20043;-64
2022/07/29 05:54:02;;;;;;;9.85;2.00;;;;;;;;;;5123412;27;20134;-63
2022/07/29 05:56:28;;;;;;;7.05;1.45;;;;;;;;;;5120740;27;20043;-63
2022/07/29 05:58:55;;;;;;;9.25;2.10;;;;;;;;;;5126387;27;20047;-63
2022/07/29 06:01:21;;;;;;;5.82;2.00;;;;;;;;;;5118000;27;20098;-63
2022/07/29 06:03:47;;;;;;;10.02;1.70;;;;;;;;;;5139622;27;20060;-65
2022/07/29 06:06:13;;;;;;;5.28;1.38;;;;;;;;;;5131017;27;20058;-65
2022/07/29 06:08:40;;;;;;;6.13;1.63;;;;;;;;;;5129431;27;20047;-65
2022/07/29 06:11:07;;;;;;;5.90;2.45;;;;;;;;;;5129543;27;20074;-65
2022/07/29 06:13:33;;;;;;;9.23;1.65;;;;;;;;;;5106352;27;20543;-65
2022/07/29 06:15:59;;;;;;;5.22;1.48;;;;;;;;;;5130736;27;20451;-64
2022/07/29 06:18:26;;;;;;;9.80;2.70;;;;;;;;;;5129931;27;20047;-65
2022/07/29 06:20:53;;;;;;;4.68;1.33;;;;;;;;;;5130473;27;20042;-65
2022/07/29 06:23:21;;;;;;;4.85;1.52;;;;;;;;;;5136141;27;20047;-64
2022/07/29 06:25:48;;;;;;;8.88;2.55;;;;;;;;;;5136603;27;20555;-64
2022/07/29 06:28:14;;;;;;;5.28;2.28;;;;;;;;;;5129817;27;20429;-65
2022/07/29 06:30:40;;;;;;;8.02;1.83;;;;;;;;;;5126824;27;20061;-65
2022/07/29 06:33:06;;;;;;;10.55;1.73;;;;;;;;;;5120538;27;20074;-65
2022/07/29 06:35:35;;;;;;;11.10;1.80;;;;;;;;;;5122423;27;20042;-66
2022/07/29 06:38:01;;;;;;;5.85;1.95;;;;;;;;;;5130576;27;20050;-64
2022/07/29 06:43:12;;;;;;;5.70;1.48;;;;;;;;;;5130511;27;21152;-64
2022/07/29 06:45:40;;;;;;;10.23;2.03;;;;;;;;;;5109810;27;20143;-63
2022/07/29 06:48:07;;;;;;;12.93;2.50;;;;;;;;;;5132434;27;20125;-64
2022/07/29 06:50:33;;;;;;;8.07;1.55;;;;;;;;;;5128562;27;20035;-64
2022/07/29 06:52:59;;;;;;;8.32;1.60;;;;;;;;;;5120741;27;20426;-63
2022/07/29 06:55:26;;;;;;;4.03;1.25;;;;;;;;;;5139673;27;20035;-64
2022/07/29 06:57:52;;;;;;;6.75;1.80;;;;;;;;;;5140050;27;20073;-63
2022/07/29 07:00:18;;;;;;;4.45;1.40;;;;;;;;;;5133699;27;20034;-64
2022/07/29 07:02:44;;;;;;;6.40;1.70;;;;;;;;;;5136977;27;20110;-64
2022/07/29 07:05:10;;;;;;;6.22;1.75;;;;;;;;;;5138620;27;20381;-64
2022/07/29 07:07:37;;;;;;;5.75;1.52;;;;;;;;;;5124006;27;21465;-64
2022/07/29 07:10:03;;;;;;;7.13;1.75;;;;;;;;;;5137817;27;20061;-63
2022/07/29 07:12:29;;;;;;;7.22;2.38;;;;;;;;;;5113730;27;20087;-64
2022/07/29 07:14:55;;;;;;;6.78;1.63;;;;;;;;;;5138348;27;20071;-64
2022/07/29 07:17:21;;;;;;;4.78;1.50;;;;;;;;;;5112653;27;20061;-64
2022/07/29 07:19:48;;;;;;;8.50;1.70;;;;;;;;;;5110923;27;20928;-64
2022/07/29 07:22:14;;;;;;;14.07;2.17;;;;;;;;;;5126844;27;20133;-65
2022/07/29 07:24:40;;;;;;;3.67;1.23;;;;;;;;;;5110647;27;20099;-64
2022/07/29 07:27:06;;;;;;;9.05;1.55;;;;;;;;;;5116036;27;20511;-65
2022/07/29 07:29:32;;;;;;;8.40;1.45;;;;;;;;;;5129093;27;20124;-68
2022/07/29 07:31:58;;;;;;;9.48;2.00;;;;;;;;;;5125144;27;20050;-64
2022/07/29 07:34:25;;;;;;;4.70;2.00;;;;;;;;;;5111567;27;20473;-64
2022/07/29 07:36:51;;;;;;;7.03;1.48;;;;;;;;;;5128339;27;20039;-64
2022/07/29 07:39:17;;;;;;;7.75;1.60;;;;;;;;;;5130218;27;20042;-64
2022/07/29 07:41:43;;;;;;;4.80;1.65;;;;;;;;;;5140632;27;20039;-64
2022/07/29 07:44:09;;;;;;;8.15;1.58;;;;;;;;;;5141766;27;20068;-64
2022/07/29 07:46:35;;;;;;;4.82;1.65;;;;;;;;;;5112297;27;20138;-64
2022/07/29 07:49:01;;;;;;;8.95;1.70;;;;;;;;;;5131862;27;20031;-64
2022/07/29 07:51:28;;;;;;;7.63;1.98;;;;;;;;;;5130709;27;20425;-64
2022/07/29 07:53:54;;;;;;;8.43;1.80;;;;;;;;;;5120095;27;20054;-64
2022/07/29 07:56:20;;;;;;;6.18;1.90;;;;;;;;;;5128880;27;20132;-64
2022/07/29 07:58:46;;;;;;;5.38;1.77;;;;;;;;;;5117654;27;20079;-64
2022/07/29 08:01:12;;;;;;;7.28;1.83;;;;;;;;;;5124764;27;20083;-64
2022/07/29 08:03:39;;;;;;;6.95;1.50;;;;;;;;;;5117405;27;20576;-64
2022/07/29 08:06:05;;;;;;;9.63;1.75;;;;;;;;;;5131708;27;20114;-64
2022/07/29 08:08:31;;;;;;;5.85;1.85;;;;;;;;;;5135704;27;20039;-64
2022/07/29 08:10:58;;;;;;;6.30;1.85;;;;;;;;;;5138092;27;20158;-64
2022/07/29 08:13:28;;;;;;;7.97;1.52;;;;;;;;;;5134570;27;20122;-64
2022/07/29 08:16:01;;;;;;;5.15;1.73;;;;;;;;;;5110176;27;20059;-64
2022/07/29 08:18:29;;;;;;;12.00;1.98;;;;;;;;;;5136248;27;20105;-64
2022/07/29 08:20:56;;;;;;;6.28;2.20;;;;;;;;;;5128961;27;20047;-70
2022/07/29 08:23:22;;;;;;;8.60;1.88;;;;;;;;;;5132619;27;20038;-64
2022/07/29 08:25:50;;;;;;;8.57;1.88;;;;;;;;;;5127579;27;20050;-64
2022/07/29 08:28:16;;;;;;;6.10;1.67;;;;;;;;;;5135150;27;20601;-64
2022/07/29 08:30:42;;;;;;;10.52;1.92;;;;;;;;;;5138556;27;20607;-64
2022/07/29 08:33:08;;;;;;;7.95;1.90;;;;;;;;;;5132635;27;20043;-64
2022/07/29 08:35:34;;;;;;;8.25;1.88;;;;;;;;;;5139148;27;20034;-64
2022/07/29 08:38:01;;;;;;;10.02;1.80;;;;;;;;;;5136364;27;20043;-64
2022/07/29 08:40:27;;;;;;;6.30;1.58;;;;;;;;;;5135875;27;20090;-64
2022/07/29 08:42:54;;;;;;;7.65;2.30;;;;;;;;;;5137021;27;20057;-64
2022/07/29 08:45:21;;;;;;;7.90;2.08;;;;;;;;;;5099019;27;20089;-63
2022/07/29 08:47:47;;;;;;;8.38;1.70;;;;;;;;;;5130837;27;20043;-64
2022/07/29 08:50:13;;;;;;;5.72;2.15;;;;;;;;;;5126941;27;20547;-64
2022/07/29 08:52:40;;;;;;;11.48;2.33;;;;;;;;;;5126714;27;20557;-64
2022/07/29 08:55:07;;;;;;;11.95;2.05;;;;;;;;;;5117142;27;20100;-63
2022/07/29 08:57:34;;;;;;;5.15;1.70;;;;;;;;;;5140529;27;20054;-64
2022/07/29 09:00:00;;;;;;;6.72;2.28;;;;;;;;;;5133768;27;20274;-64
2022/07/29 09:02:28;;;;;;;7.00;1.98;;;;;;;;;;5103395;27;20412;-64
2022/07/29 09:04:54;;;;;;;5.82;1.83;;;;;;;;;;5102188;27;20119;-65
2022/07/29 09:07:21;;;;;;;7.95;1.73;;;;;;;;;;5103550;27;20090;-64
2022/07/29 09:09:47;;;;;;;7.72;1.60;;;;;;;;;;5125450;27;20049;-64
2022/07/29 09:12:14;;;;;;;6.45;2.20;;;;;;;;;;5132564;27;20069;-64
2022/07/29 09:14:40;;;;;;;6.43;2.00;;;;;;;;;;5109168;27;20047;-64
2022/07/29 09:17:07;;;;;;;7.10;2.33;;;;;;;;;;5125839;27;20120;-64
2022/07/29 09:19:34;;;;;;;6.82;2.20;;;;;;;;;;5115393;27;20057;-64
2022/07/29 09:22:01;;;;;;;8.75;2.33;;;;;;;;;;5113583;27;20413;-64
2022/07/29 09:24:43;;;;;;;7.05;2.33;;;;;;;;;;5130139;27;20042;-64
2022/07/29 09:27:20;;;;;;;7.40;2.15;;;;;;;;;;5113286;27;20401;-64
2022/07/29 09:29:46;;;;;;;10.18;2.47;;;;;;;;;;5126601;27;20118;-65
2022/07/29 09:32:12;;;;;;;6.25;2.50;;;;;;;;;;5126301;27;20069;-64
2022/07/29 09:34:39;;;;;;;7.43;1.92;;;;;;;;;;5131901;27;20452;-64
2022/07/29 09:37:05;;;;;;;6.22;2.17;;;;;;;;;;5127572;27;20138;-64
2022/07/29 09:39:37;;;;;;;8.07;2.20;;;;;;;;;;5132691;27;20695;-64
2022/07/29 09:42:05;;;;;;;6.85;2.03;;;;;;;;;;5114013;27;20122;-64
2022/07/29 09:44:42;;;;;;;9.25;2.53;;;;;;;;;;5133230;27;20041;-64
2022/07/29 09:47:08;;;;;;;7.80;2.30;;;;;;;;;;5126952;27;20128;-64
2022/07/29 09:49:35;;;;;;;7.93;2.20;;;;;;;;;;5126455;27;20047;-64
2022/07/29 09:52:06;;;;;;;5.20;2.38;;;;;;;;;;5125970;27;20042;-64
2022/07/29 09:54:37;;;;;;;7.72;1.90;;;;;;;;;;5128018;27;20178;-64
2022/07/29 09:57:04;;;;;;;8.60;2.42;;;;;;;;;;5127831;27;20035;-66
2022/07/29 09:59:31;;;;;;;7.57;1.95;;;;;;;;;;5110496;27;20062;-66
2022/07/29 10:01:57;;;;;;;6.28;2.33;;;;;;;;;;5131851;27;20039;-66
2022/07/29 10:04:23;;;;;;;6.50;2.15;;;;;;;;;;5118927;27;20070;-65
2022/07/29 10:06:58;;;;;;;9.43;2.50;;;;;;;;;;5127787;27;20124;-64
2022/07/29 10:09:24;;;;;;;11.75;2.40;;;;;;;;;;5112777;27;20398;-64
2022/07/29 10:12:07;;;;;;;11.48;2.40;;;;;;;;;;5131108;27;20168;-65
2022/07/29 10:14:34;;;;;;;9.05;2.47;;;;;;;;;;5107546;27;20086;-65
2022/07/29 10:17:01;;;;;;;7.90;2.10;;;;;;;;;;5104302;27;20038;-64
2022/07/29 10:19:30;;;;;;;9.80;2.28;;;;;;;;;;5114605;27;20065;-64
2022/07/29 10:21:57;;;;;;;10.90;2.55;;;;;;;;;;5134051;27;20127;-65
2022/07/29 10:24:23;;;;;;;9.88;2.78;;;;;;;;;;5128153;27;20081;-65
2022/07/29 10:26:50;;;;;;;5.28;2.20;;;;;;;;;;5116683;27;20046;-65
2022/07/29 10:29:16;;;;;;;9.70;2.30;;;;;;;;;;5130003;27;20158;-65
2022/07/29 10:31:48;;;;;;;12.18;2.65;;;;;;;;;;5135037;27;20138;-65
2022/07/29 10:34:20;;;;;;;10.68;2.58;;;;;;;;;;5117285;27;20043;-64
2022/07/29 10:37:00;;;;;;;8.40;2.67;;;;;;;;;;5140716;27;20050;-64
2022/07/29 10:39:33;;;;;;;8.00;2.80;;;;;;;;;;5134267;27;20046;-65
2022/07/29 10:42:07;;;;;;;6.35;2.38;;;;;;;;;;5139096;27;20042;-64
2022/07/29 10:44:33;;;;;;;;;;;;;;;;;;5123098;27;20126;-65
2022/07/29 10:46:59;;;;;;;6.15;2.33;;;;;;;;;;5134198;27;19990;-65
2022/07/29 10:49:26;;;;;;;7.15;2.78;;;;;;;;;;5134193;27;20039;-65
2022/07/29 10:52:03;;;;;;;9.98;3.70;;;;;;;;;;5131776;27;20042;-65
2022/07/29 10:54:35;;;;;;;11.23;2.67;;;;;;;;;;5132417;27;20046;-65
2022/07/29 10:57:13;;;;;;;6.82;2.50;;;;;;;;;;5128419;27;20060;-65
2022/07/29 10:59:39;;;;;;;8.82;2.38;;;;;;;;;;5136307;27;20221;-65
2022/07/29 11:02:30;;;;;;;4.57;2.30;;;;;;;;;;5131081;27;20054;-65
2022/07/29 11:04:56;;;;;;;8.32;2.72;;;;;;;;;;5128331;27;20035;-65
2022/07/29 11:07:22;;;;;;;8.30;2.90;;;;;;;;;;5113478;27;20390;-65
2022/07/29 11:10:07;;;;;;;6.82;2.30;;;;;;;;;;5128524;27;20495;-65
2022/07/29 11:12:39;;;;;;;14.43;2.90;;;;;;;;;;5129725;27;20557;-73
2022/07/29 11:15:07;;;;;;;10.68;2.58;;;;;;;;;;5132553;27;20066;-65
2022/07/29 11:17:58;;;;;;;7.97;2.75;;;;;;;;;;5131797;27;20039;-64
2022/07/29 11:20:36;;;;;;;7.85;2.40;;;;;;;;;;5129176;27;20035;-64
2022/07/29 11:23:17;;;;;;;5.78;2.22;;;;;;;;;;5131775;27;20445;-64
2022/07/29 11:25:44;;;;;;;9.50;3.13;;;;;;;;;;5125724;27;20035;-64
2022/07/29 11:28:14;;;;;;;8.85;2.88;;;;;;;;;;5131314;27;20051;-64
2022/07/29 11:30:53;;;;;;;10.27;2.75;;;;;;;;;;5112510;27;20043;-64
2022/07/29 11:33:30;;;;;;;7.00;3.00;;;;;;;;;;5127793;27;20039;-64
2022/07/29 11:36:15;;;;;;;9.65;2.85;;;;;;;;;;5129620;27;20047;-65
2022/07/29 11:38:41;;;;;;;5.20;2.20;;;;;;;;;;5129091;27;20137;-65
2022/07/29 11:41:18;;;;;;;8.68;3.05;;;;;;;;;;5129741;27;20039;-65
2022/07/29 11:43:51;;;;;;;8.85;2.97;;;;;;;;;;5124050;27;20264;-64
2022/07/29 11:46:37;;;;;;;6.32;2.35;;;;;;;;;;5137870;27;20477;-65
2022/07/29 11:49:04;;;;;;;8.32;2.70;;;;;;;;;;5132955;27;20508;-65
2022/07/29 11:51:30;;;;;;;7.47;2.92;;;;;;;;;;5132892;27;20442;-65
2022/07/29 11:53:58;;;;;;;9.68;3.25;;;;;;;;;;5107383;27;20573;-65
2022/07/29 11:56:26;;;;;;;10.07;2.70;;;;;;;;;;5125479;27;20506;-65
2022/07/29 11:59:03;;;;;;;8.90;2.63;;;;;;;;;;5104887;27;20092;-82
2022/07/29 12:01:29;;;;;;;8.88;3.33;;;;;;;;;;5115042;27;20049;-65
2022/07/29 12:04:11;;;;;;;14.80;2.38;;;;;;;;;;5126909;27;20031;-64
2022/07/29 12:06:37;;;;;;;7.50;2.55;;;;;;;;;;5129043;27;20087;-64
2022/07/29 12:09:08;;;;;;;9.75;2.78;;;;;;;;;;5137962;27;20112;-65
2022/07/29 12:11:34;;;;;;;8.18;2.72;;;;;;;;;;5130241;27;20067;-64
2022/07/29 12:14:02;;;;;;;7.88;2.30;;;;;;;;;;5134671;27;20039;-64
2022/07/29 12:16:37;;;;;;;7.28;2.40;;;;;;;;;;5134279;27;20513;-66
2022/07/29 12:19:04;;;;;;;6.68;2.17;;;;;;;;;;5135194;27;20046;-65
2022/07/29 12:21:46;;;;;;;10.30;2.65;;;;;;;;;;5131123;27;20107;-65
2022/07/29 12:24:12;;;;;;;9.30;2.65;;;;;;;;;;5131838;27;20377;-65
2022/07/29 12:26:50;;;;;;;5.80;2.70;;;;;;;;;;5132193;27;20035;-64
2022/07/29 12:29:17;;;;;;;13.02;2.70;;;;;;;;;;5127847;27;20065;-64
2022/07/29 12:31:44;;;;;;;6.47;2.42;;;;;;;;;;5125343;27;20112;-65
2022/07/29 12:34:11;;;;;;;8.35;2.70;;;;;;;;;;5126996;27;20050;-64
2022/07/29 12:36:38;;;;;;;11.77;3.00;;;;;;;;;;5108783;28;20095;-65
2022/07/29 12:39:05;;;;;;;7.15;2.38;;;;;;;;;;5108118;27;20047;-65
2022/07/29 12:41:32;;;;;;;8.85;2.60;;;;;;;;;;5106574;27;20035;-65
2022/07/29 12:43:58;;;;;;;9.43;2.00;;;;;;;;;;5123985;27;20043;-64
2022/07/29 12:46:24;;;;;;;9.00;2.72;;;;;;;;;;5123810;27;20498;-65
2022/07/29 12:48:54;;;;;;;5.93;2.70;;;;;;;;;;5123635;27;20077;-65
2022/07/29 12:51:28;;;;;;;9.18;2.38;;;;;;;;;;5137599;27;20142;-65
2022/07/29 12:54:04;;;;;;;13.30;3.10;;;;;;;;;;5120960;27;20084;-65
2022/07/29 12:56:30;;;;;;;10.50;2.50;;;;;;;;;;5119746;27;20052;-65
2022/07/29 12:58:56;;;;;;;5.18;2.83;;;;;;;;;;5118724;27;20111;-65
2022/07/29 13:01:23;;;;;;;8.82;3.42;;;;;;;;;;5142630;27;20030;-65
2022/07/29 13:03:51;;;;;;;7.43;2.67;;;;;;;;;;5128165;27;20035;-64
2022/07/29 13:06:28;;;;;;;8.90;3.08;;;;;;;;;;5129803;27;20637;-64
2022/07/29 13:09:08;;;;;;;6.78;2.72;;;;;;;;;;5136282;27;20579;-65
2022/07/29 13:11:38;;;;;;;7.85;2.50;;;;;;;;;;5128999;27;20043;-65
2022/07/29 13:14:04;;;;;;;9.70;3.10;;;;;;;;;;5129814;27;20057;-65
2022/07/29 13:16:30;;;;;;;17.88;3.15;;;;;;;;;;5133491;27;20075;-65
2022/07/29 13:19:07;;;;;;;8.55;2.55;;;;;;;;;;5135777;27;20038;-64
2022/07/29 13:21:34;;;;;;;8.48;2.72;;;;;;;;;;5104649;27;20083;-64
2022/07/29 13:24:00;;;;;;;9.55;2.33;;;;;;;;;;5115979;27;20835;-65
2022/07/29 13:26:27;;;;;;;6.22;2.13;;;;;;;;;;5132314;27;20159;-65
2022/07/29 13:28:54;;;;;;;8.25;2.50;;;;;;;;;;5132591;27;20039;-65
2022/07/29 13:31:21;;;;;;;10.25;2.58;;;;;;;;;;5111461;27;20051;-64
2022/07/29 13:33:48;;;;;;;8.43;2.55;;;;;;;;;;5125712;27;20051;-65
2022/07/29 13:36:14;;;;;;;11.57;2.53;;;;;;;;;;5128481;27;20038;-65
2022/07/29 13:38:40;;;;;;;12.23;2.80;;;;;;;;;;5116271;27;20038;-65
2022/07/29 13:41:06;;;;;;;5.30;2.13;;;;;;;;;;5131424;27;20050;-65
2022/07/29 13:43:33;;;;;;;6.22;2.55;;;;;;;;;;5127633;27;20160;-64
2022/07/29 13:45:59;;;;;;;7.90;2.83;;;;;;;;;;5134514;27;20117;-65
2022/07/29 13:48:25;;;;;;;10.90;2.88;;;;;;;;;;5130368;27;20074;-65
2022/07/29 13:50:51;;;;;;;7.28;3.10;;;;;;;;;;5105310;27;20059;-65
2022/07/29 13:53:17;;;;;;;6.57;2.80;;;;;;;;;;5109574;27;20122;-64
2022/07/29 13:55:44;;;;;;;7.18;2.72;;;;;;;;;;5128876;27;20042;-64
2022/07/29 13:58:10;;;;;;;9.68;2.70;;;;;;;;;;5128322;27;20046;-64
2022/07/29 14:00:36;;;;;;;7.80;2.67;;;;;;;;;;5126693;27;20055;-64
2022/07/29 14:03:02;;;;;;;9.32;2.72;;;;;;;;;;5126996;27;21562;-65
2022/07/29 14:05:28;;;;;;;7.63;2.45;;;;;;;;;;5128570;27;20054;-65
2022/07/29 14:07:54;;;;;;;10.13;2.30;;;;;;;;;;5129549;27;20046;-65
2022/07/29 14:10:21;;;;;;;7.20;2.58;;;;;;;;;;5132716;27;20039;-65
2022/07/29 14:12:47;;;;;;;8.43;2.75;;;;;;;;;;5134944;27;20042;-65
2022/07/29 14:15:13;;;;;;;12.82;3.30;;;;;;;;;;5127206;27;20062;-65
2022/07/29 14:17:39;;;;;;;10.57;2.63;;;;;;;;;;5123335;27;20083;-66
2022/07/29 14:20:06;;;;;;;8.98;3.22;;;;;;;;;;5122083;27;20043;-65
2022/07/29 14:22:33;;;;;;;12.68;3.28;;;;;;;;;;5105784;27;20046;-65
2022/07/29 14:24:59;;;;;;;9.15;2.97;;;;;;;;;;5127459;27;20506;-65
2022/07/29 14:27:25;;;;;;;7.65;2.53;;;;;;;;;;5128686;27;20074;-65
2022/07/29 14:29:51;;;;;;;11.55;2.67;;;;;;;;;;5134124;27;20091;-65
2022/07/29 14:32:18;;;;;;;9.15;2.85;;;;;;;;;;5101043;27;20130;-66
2022/07/29 14:34:44;;;;;;;19.10;2.80;;;;;;;;;;5128692;27;20076;-65
2022/07/29 14:37:10;;;;;;;6.93;3.03;;;;;;;;;;5108374;27;20074;-65
2022/07/29 14:39:36;;;;;;;8.73;1.83;;;;;;;;;;5133104;27;20552;-65
2022/07/29 14:42:03;;;;;;;9.23;2.17;;;;;;;;;;5125382;27;20080;-65
2022/07/29 14:44:30;;;;;;;4.15;2.10;;;;;;;;;;5132754;27;20053;-65
2022/07/29 14:46:59;;;;;;;7.55;1.92;;;;;;;;;;5129978;27;20134;-65
2022/07/29 14:49:25;;;;;;;7.53;1.77;;;;;;;;;;5132208;27;20113;-65
2022/07/29 14:51:51;;;;;;;8.93;2.28;;;;;;;;;;5133724;27;20158;-65
2022/07/29 14:54:18;;;;;;;4.32;1.55;;;;;;;;;;5129692;27;20039;-65